createdAt,value
2023-05-10T00:01:16.834Z,3.70
2023-05-10T00:03:44.440Z,3.53
2023-05-10T00:06:12.054Z,3.53
2023-05-10T00:08:39.588Z,3.80
2023-05-10T00:11:07.006Z,4.30
2023-05-10T00:13:34.584Z,3.70
2023-05-10T00:16:02.562Z,3.60
2023-05-10T00:18:30.224Z,4.27
2023-05-10T00:20:59.204Z,4.00
2023-05-10T00:23:30.141Z,3.90
2023-05-10T00:25:58.233Z,4.10
2023-05-10T00:28:32.668Z,4.27
2023-05-10T00:31:00.226Z,4.30
2023-05-10T00:33:28.229Z,3.77
2023-05-10T00:35:55.706Z,4.20
2023-05-10T00:38:23.104Z,3.80
2023-05-10T00:40:51.011Z,4.20
2023-05-10T00:43:18.683Z,4.07
2023-05-10T00:45:48.925Z,4.43
2023-05-10T00:48:16.591Z,4.13
2023-05-10T00:51:04.523Z,4.37
2023-05-10T00:53:33.934Z,3.83
2023-05-10T00:56:02.554Z,4.17
2023-05-10T00:58:32.082Z,4.10
2023-05-10T01:01:01.566Z,4.20
2023-05-10T01:03:30.250Z,4.13
2023-05-10T01:05:57.915Z,3.97
2023-05-10T01:08:26.309Z,4.17
2023-05-10T01:10:54.287Z,4.10
2023-05-10T01:13:33.208Z,4.20
2023-05-10T01:16:03.571Z,4.00
2023-05-10T01:18:35.453Z,4.40
2023-05-10T01:21:37.590Z,4.07
2023-05-10T01:24:22.752Z,3.90
2023-05-10T01:27:18.025Z,4.27
2023-05-10T01:29:48.658Z,4.10
2023-05-10T01:32:20.374Z,4.37
2023-05-10T01:35:24.129Z,4.50
2023-05-10T01:38:12.728Z,4.20
2023-05-10T01:41:01.197Z,4.40
2023-05-10T01:43:34.772Z,4.30
2023-05-10T01:46:19.112Z,4.00
2023-05-10T01:48:52.675Z,4.23
2023-05-10T01:51:25.170Z,4.00
2023-05-10T01:54:00.249Z,4.20
2023-05-10T01:56:30.716Z,4.30
2023-05-10T01:58:59.919Z,4.17
2023-05-10T02:01:29.884Z,4.13
2023-05-10T02:03:58.558Z,4.27
2023-05-10T02:06:27.305Z,4.30
2023-05-10T02:08:55.445Z,4.50
2023-05-10T02:11:24.385Z,4.20
2023-05-10T02:13:54.275Z,4.80
2023-05-10T02:16:26.491Z,4.10
2023-05-10T02:18:55.395Z,4.50
2023-05-10T02:21:24.016Z,4.20
2023-05-10T02:23:59.525Z,3.60
2023-05-10T02:26:28.166Z,4.10
2023-05-10T02:28:57.766Z,4.43
2023-05-10T02:31:27.375Z,4.90
2023-05-10T02:33:56.161Z,4.50
2023-05-10T02:36:24.785Z,4.73
2023-05-10T02:38:54.435Z,4.20
2023-05-10T02:41:24.065Z,4.53
2023-05-10T02:43:53.247Z,3.93
2023-05-10T02:46:21.268Z,4.23
2023-05-10T02:48:48.750Z,4.47
2023-05-10T02:51:18.843Z,3.77
2023-05-10T02:53:48.358Z,4.07
2023-05-10T02:56:41.148Z,4.50
2023-05-10T02:59:08.930Z,4.17
2023-05-10T03:01:36.427Z,3.97
2023-05-10T03:04:04.962Z,3.60
2023-05-10T03:06:32.611Z,4.07
2023-05-10T03:09:00.601Z,4.13
2023-05-10T03:11:37.036Z,3.57
2023-05-10T03:14:28.738Z,3.40
2023-05-10T03:17:30.945Z,4.00
2023-05-10T03:20:04.666Z,3.40
2023-05-10T03:22:42.324Z,3.73
2023-05-10T03:25:12.934Z,3.57
2023-05-10T03:27:43.029Z,4.10
2023-05-10T03:30:34.720Z,3.60
2023-05-10T03:33:22.377Z,3.63
2023-05-10T03:35:49.872Z,3.87
2023-05-10T03:38:20.249Z,3.80
2023-05-10T03:40:47.727Z,3.23
2023-05-10T03:43:15.128Z,3.83
2023-05-10T03:45:42.520Z,4.40
2023-05-10T03:48:09.983Z,4.00
2023-05-10T03:50:37.498Z,4.57
2023-05-10T03:53:04.840Z,4.17
2023-05-10T03:55:37.989Z,3.73
2023-05-10T03:58:05.488Z,3.50
2023-05-10T04:00:36.506Z,3.07
2023-05-10T04:03:04.122Z,3.63
2023-05-10T04:05:34.367Z,3.30
2023-05-10T04:08:01.835Z,3.30
2023-05-10T04:10:29.429Z,3.80
2023-05-10T04:13:15.283Z,3.90
2023-05-10T04:15:42.830Z,3.30
2023-05-10T04:18:18.941Z,3.90
2023-05-10T04:20:46.400Z,3.53
2023-05-10T04:23:15.248Z,3.47
2023-05-10T04:25:43.150Z,3.40
2023-05-10T04:28:10.627Z,2.87
2023-05-10T04:30:38.481Z,3.30
2023-05-10T04:33:06.450Z,3.07
2023-05-10T04:35:34.028Z,3.23
2023-05-10T04:38:01.794Z,3.10
2023-05-10T04:40:29.254Z,3.00
2023-05-10T04:42:57.119Z,3.03
2023-05-10T04:45:24.540Z,3.10
2023-05-10T04:47:51.963Z,3.30
2023-05-10T04:50:19.546Z,3.30
2023-05-10T04:52:47.337Z,3.50
2023-05-10T04:55:15.258Z,3.10
2023-05-10T04:57:42.706Z,3.10
2023-05-10T05:00:16.692Z,3.15
2023-05-10T05:02:48.745Z,3.00
2023-05-10T05:05:17.384Z,3.30
2023-05-10T05:07:47.150Z,2.92
2023-05-10T05:10:14.895Z,3.00
2023-05-10T05:12:42.955Z,3.10
2023-05-10T05:15:10.978Z,3.05
2023-05-10T05:17:38.535Z,2.60
2023-05-10T05:20:06.984Z,2.97
2023-05-10T05:22:36.867Z,2.63
2023-05-10T05:25:05.109Z,3.22
2023-05-10T05:27:32.846Z,2.50
2023-05-10T05:30:01.128Z,3.30
2023-05-10T05:32:29.087Z,2.80
2023-05-10T05:34:56.828Z,2.88
2023-05-10T05:37:25.696Z,2.78
2023-05-10T05:39:53.247Z,2.60
2023-05-10T05:42:21.246Z,2.47
2023-05-10T05:44:48.657Z,3.00
2023-05-10T05:47:16.294Z,2.85
2023-05-10T05:49:43.809Z,3.10
2023-05-10T05:52:11.224Z,3.28
2023-05-10T05:54:40.980Z,2.65
2023-05-10T05:57:08.778Z,3.20
2023-05-10T05:59:36.373Z,2.80
2023-05-10T06:02:23.722Z,3.22
2023-05-10T06:04:52.002Z,2.97
2023-05-10T06:07:19.647Z,2.88
2023-05-10T06:09:47.211Z,3.35
2023-05-10T06:12:14.923Z,2.92
2023-05-10T06:14:42.415Z,3.00
2023-05-10T06:17:13.540Z,3.40
2023-05-10T06:19:43.369Z,3.13
2023-05-10T06:22:11.028Z,3.10
2023-05-10T06:24:38.669Z,2.78
2023-05-10T06:27:07.194Z,2.88
2023-05-10T06:29:34.788Z,3.13
2023-05-10T06:32:02.656Z,2.83
2023-05-10T06:34:40.623Z,2.85
2023-05-10T06:37:24.738Z,2.95
2023-05-10T06:39:52.333Z,2.92
2023-05-10T06:42:19.789Z,2.97
2023-05-10T06:44:47.688Z,2.60
2023-05-10T06:47:15.057Z,2.90
2023-05-10T06:49:44.528Z,2.92
2023-05-10T06:52:12.125Z,2.65
2023-05-10T06:54:45.637Z,3.10
2023-05-10T06:57:27.573Z,2.80
2023-05-10T06:59:59.185Z,2.78
2023-05-10T07:02:26.992Z,2.97
2023-05-10T07:04:55.393Z,2.70
2023-05-10T07:07:23.612Z,2.92
2023-05-10T07:09:51.659Z,2.88
2023-05-10T07:12:19.349Z,2.60
2023-05-10T07:14:47.822Z,2.90
2023-05-10T07:17:15.723Z,3.20
2023-05-10T07:19:43.544Z,3.20
2023-05-10T07:22:11.164Z,2.83
2023-05-10T07:24:39.267Z,3.03
2023-05-10T07:27:07.063Z,3.00
2023-05-10T07:29:34.729Z,2.80
2023-05-10T07:32:02.556Z,4.53
2023-05-10T07:34:31.372Z,3.00
2023-05-10T07:37:02.164Z,3.20
2023-05-10T07:39:29.699Z,4.07
2023-05-10T07:41:57.553Z,3.33
2023-05-10T07:44:25.556Z,3.08
2023-05-10T07:46:53.410Z,4.82
2023-05-10T07:49:21.220Z,3.33
2023-05-10T07:51:51.402Z,4.97
2023-05-10T07:54:19.242Z,3.13
2023-05-10T07:56:48.442Z,2.83
2023-05-10T07:59:21.647Z,3.08
2023-05-10T08:01:51.278Z,3.15
2023-05-10T08:04:18.925Z,2.88
2023-05-10T08:06:46.456Z,2.70
2023-05-10T08:09:14.562Z,2.70
2023-05-10T08:11:42.164Z,2.83
2023-05-10T08:14:09.635Z,2.60
2023-05-10T08:16:37.041Z,3.10
2023-05-10T08:19:04.599Z,3.28
2023-05-10T08:21:32.620Z,3.28
2023-05-10T08:24:00.352Z,2.97
2023-05-10T08:26:27.994Z,2.88
2023-05-10T08:28:57.570Z,2.95
2023-05-10T08:31:25.074Z,2.97
2023-05-10T08:33:53.886Z,2.92
2023-05-10T08:36:22.989Z,3.03
2023-05-10T08:38:53.504Z,3.00
2023-05-10T08:41:27.781Z,3.28
2023-05-10T08:43:55.949Z,3.50
2023-05-10T08:46:24.360Z,3.65
2023-05-10T08:48:53.902Z,3.58
2023-05-10T08:51:26.493Z,3.30
2023-05-10T08:53:54.294Z,3.20
2023-05-10T08:56:22.248Z,3.10
2023-05-10T08:59:02.600Z,3.30
2023-05-10T09:01:33.432Z,3.47
2023-05-10T09:04:01.465Z,3.40
2023-05-10T09:06:29.887Z,3.22
2023-05-10T09:08:58.396Z,3.08
2023-05-10T09:11:27.030Z,3.08
2023-05-10T09:13:54.701Z,3.35
2023-05-10T09:16:22.818Z,3.50
2023-05-10T09:18:50.977Z,3.35
2023-05-10T09:21:20.858Z,3.30
2023-05-10T09:23:51.440Z,3.40
2023-05-10T09:26:23.100Z,3.50
2023-05-10T09:28:57.739Z,3.35
2023-05-10T09:31:26.953Z,3.60
2023-05-10T09:33:58.678Z,3.58
2023-05-10T09:36:26.365Z,3.42
2023-05-10T09:38:54.081Z,3.10
2023-05-10T09:41:26.190Z,2.85
2023-05-10T09:43:57.812Z,3.10
2023-05-10T09:46:25.647Z,2.97
2023-05-10T09:48:53.777Z,3.17
2023-05-10T09:51:25.486Z,3.28
2023-05-10T09:54:16.844Z,3.65
2023-05-10T09:56:44.709Z,3.13
2023-05-10T09:59:13.706Z,3.08
2023-05-10T10:01:42.168Z,3.00
2023-05-10T10:04:11.442Z,3.13
2023-05-10T10:07:04.787Z,3.30
2023-05-10T10:09:34.343Z,3.85
2023-05-10T10:12:08.181Z,2.80
2023-05-10T10:14:36.445Z,3.20
2023-05-10T10:17:08.627Z,3.10
2023-05-10T10:19:38.222Z,2.72
2023-05-10T10:22:07.114Z,3.40
2023-05-10T10:24:36.010Z,2.83
2023-05-10T10:27:42.434Z,2.65
2023-05-10T10:30:34.126Z,2.80
2023-05-10T10:33:13.293Z,3.28
2023-05-10T10:35:48.632Z,3.00
2023-05-10T10:38:16.602Z,2.88
2023-05-10T10:40:49.283Z,2.85
2023-05-10T10:43:28.051Z,2.45
2023-05-10T10:46:16.291Z,2.92
2023-05-10T10:48:49.654Z,2.80
2023-05-10T10:51:17.322Z,2.60
2023-05-10T10:53:45.414Z,2.67
2023-05-10T10:56:16.411Z,2.47
2023-05-10T10:58:55.018Z,3.17
2023-05-10T11:01:22.769Z,2.70
2023-05-10T11:04:10.483Z,2.80
2023-05-10T11:06:38.125Z,2.63
2023-05-10T11:09:10.670Z,2.58
2023-05-10T11:12:09.482Z,2.50
2023-05-10T11:14:37.062Z,2.70
2023-05-10T11:17:28.999Z,2.40
2023-05-10T11:20:15.404Z,2.70
2023-05-10T11:22:56.281Z,2.40
2023-05-10T11:25:30.037Z,2.80
2023-05-10T11:27:58.074Z,2.70
2023-05-10T11:30:26.534Z,2.80
2023-05-10T11:32:54.285Z,3.00
2023-05-10T11:35:22.132Z,2.60
2023-05-10T11:37:53.230Z,2.78
2023-05-10T11:40:22.717Z,2.35
2023-05-10T11:42:50.880Z,2.70
2023-05-10T11:45:18.592Z,2.50
2023-05-10T11:47:46.016Z,2.75
2023-05-10T11:50:13.677Z,2.67
2023-05-10T11:52:41.544Z,2.58
2023-05-10T11:55:09.354Z,2.80
2023-05-10T11:57:39.542Z,2.60
2023-05-10T12:00:08.217Z,2.72
2023-05-10T12:02:38.329Z,2.50
2023-05-10T12:05:07.067Z,3.13
2023-05-10T12:07:34.886Z,3.13
2023-05-10T12:10:16.322Z,2.72
2023-05-10T12:12:46.408Z,2.60
2023-05-10T12:15:22.259Z,3.10
2023-05-10T12:17:50.845Z,3.13
2023-05-10T12:20:20.812Z,2.50
2023-05-10T12:22:58.905Z,2.75
2023-05-10T12:25:32.547Z,2.97
2023-05-10T12:28:04.537Z,2.63
2023-05-10T12:30:34.035Z,2.42
2023-05-10T12:33:09.841Z,3.05
2023-05-10T12:35:50.669Z,2.90
2023-05-10T12:38:36.780Z,2.53
2023-05-10T12:41:06.179Z,2.80
2023-05-10T12:43:35.058Z,2.58
2023-05-10T12:46:18.546Z,3.00
2023-05-10T12:48:47.634Z,2.80
2023-05-10T12:51:18.410Z,3.15
2023-05-10T12:53:49.332Z,2.97
2023-05-10T12:56:18.286Z,2.75
2023-05-10T12:58:49.384Z,2.90
2023-05-10T13:01:17.205Z,2.60
2023-05-10T13:03:46.933Z,3.15
2023-05-10T13:06:15.722Z,2.40
2023-05-10T13:08:43.163Z,2.45
2023-05-10T13:11:10.841Z,2.80
2023-05-10T13:13:38.534Z,2.80
2023-05-10T13:16:06.496Z,2.92
2023-05-10T13:18:34.542Z,2.97
2023-05-10T13:21:03.529Z,2.70
2023-05-10T13:23:31.260Z,3.03
2023-05-10T13:25:58.920Z,2.83
2023-05-10T13:28:27.501Z,2.88
2023-05-10T13:30:55.085Z,2.55
2023-05-10T13:33:22.459Z,2.80
2023-05-10T13:35:50.572Z,2.63
2023-05-10T13:38:19.893Z,2.70
2023-05-10T13:40:48.692Z,2.50
2023-05-10T13:43:16.659Z,3.03
2023-05-10T13:45:44.236Z,2.50
2023-05-10T13:48:11.996Z,2.50
2023-05-10T13:50:51.825Z,2.55
2023-05-10T13:53:19.628Z,2.88
2023-05-10T13:55:47.421Z,2.92
2023-05-10T13:58:15.178Z,2.50
2023-05-10T14:00:42.930Z,2.65
2023-05-10T14:03:12.567Z,2.50
2023-05-10T14:05:40.232Z,2.78
2023-05-10T14:08:08.587Z,2.95
2023-05-10T14:10:36.175Z,2.60
2023-05-10T14:13:04.415Z,2.55
2023-05-10T14:15:32.193Z,2.50
2023-05-10T14:17:59.788Z,2.80
2023-05-10T14:20:28.097Z,2.92
2023-05-10T14:22:55.869Z,2.08
2023-05-10T14:25:23.233Z,2.65
2023-05-10T14:27:50.914Z,2.60
2023-05-10T14:30:18.606Z,2.72
2023-05-10T14:32:47.677Z,2.70
2023-05-10T14:35:19.127Z,2.47
2023-05-10T14:37:47.492Z,2.40
2023-05-10T14:40:16.314Z,2.28
2023-05-10T14:42:44.524Z,2.50
2023-05-10T14:45:32.217Z,2.45
2023-05-10T14:48:00.414Z,2.22
2023-05-10T14:50:36.558Z,2.28
2023-05-10T14:53:24.470Z,2.40
2023-05-10T14:55:55.713Z,2.40
2023-05-10T14:58:23.183Z,2.80
2023-05-10T15:00:59.733Z,2.20
2023-05-10T15:03:30.079Z,2.20
2023-05-10T15:05:59.172Z,2.35
2023-05-10T15:08:26.528Z,2.63
2023-05-10T15:10:56.580Z,2.20
2023-05-10T15:13:26.246Z,2.45
2023-05-10T15:15:53.875Z,2.10
2023-05-10T15:18:21.433Z,2.38
2023-05-10T15:20:49.500Z,2.85
2023-05-10T15:23:17.238Z,2.30
2023-05-10T15:25:45.168Z,2.30
2023-05-10T15:28:12.648Z,2.28
2023-05-10T15:30:40.368Z,2.35
2023-05-10T15:33:08.905Z,2.33
2023-05-10T15:35:39.586Z,2.58
2023-05-10T15:38:08.527Z,2.25
2023-05-10T15:40:36.539Z,2.38
2023-05-10T15:43:04.001Z,2.40
2023-05-10T15:45:31.647Z,2.38
2023-05-10T15:48:00.412Z,2.13
2023-05-10T15:50:28.248Z,2.63
2023-05-10T15:52:55.888Z,2.20
2023-05-10T15:55:23.768Z,2.38
2023-05-10T15:57:51.688Z,2.55
2023-05-10T16:00:19.412Z,2.47
2023-05-10T16:02:46.921Z,2.10
2023-05-10T16:05:17.002Z,2.28
2023-05-10T16:07:44.763Z,2.47
2023-05-10T16:10:12.360Z,2.30
2023-05-10T16:12:40.153Z,2.10
2023-05-10T16:15:09.729Z,2.10
2023-05-10T16:17:39.727Z,2.20
2023-05-10T16:20:08.103Z,2.10
2023-05-10T16:22:36.619Z,2.10
2023-05-10T16:25:04.511Z,1.90
2023-05-10T16:27:33.734Z,2.33
2023-05-10T16:30:04.895Z,2.20
2023-05-10T16:32:32.409Z,2.10
2023-05-10T16:35:02.935Z,1.85
2023-05-10T16:37:31.817Z,2.22
2023-05-10T16:40:02.119Z,2.22
2023-05-10T16:42:30.651Z,2.00
2023-05-10T16:44:58.402Z,2.00
2023-05-10T16:47:27.008Z,2.10
2023-05-10T16:49:54.552Z,2.10
2023-05-10T16:52:22.088Z,2.17
2023-05-10T16:54:49.662Z,2.03
2023-05-10T16:57:18.951Z,2.28
2023-05-10T16:59:47.585Z,2.22
2023-05-10T17:02:17.706Z,2.40
2023-05-10T17:04:47.022Z,1.75
2023-05-10T17:07:15.394Z,1.80
2023-05-10T17:09:44.586Z,1.80
2023-05-10T17:12:12.881Z,2.30
2023-05-10T17:14:40.852Z,2.17
2023-05-10T17:17:08.430Z,1.90
2023-05-10T17:19:36.624Z,2.00
2023-05-10T17:22:04.321Z,2.17
2023-05-10T17:24:33.373Z,2.13
2023-05-10T17:27:01.161Z,2.05
2023-05-10T17:29:29.379Z,1.95
2023-05-10T17:31:57.788Z,2.10
2023-05-10T17:34:25.761Z,2.33
2023-05-10T17:36:54.887Z,1.90
2023-05-10T17:39:22.788Z,2.05
2023-05-10T17:41:52.267Z,2.20
2023-05-10T17:44:20.120Z,2.00
2023-05-10T17:46:48.312Z,2.33
2023-05-10T17:49:16.441Z,2.08
2023-05-10T17:51:44.903Z,2.25
2023-05-10T17:54:13.563Z,2.33
2023-05-10T17:56:42.406Z,2.20
2023-05-10T17:59:10.090Z,2.03
2023-05-10T18:01:39.506Z,2.17
2023-05-10T18:04:08.795Z,2.08
2023-05-10T18:06:38.387Z,2.00
2023-05-10T18:09:09.326Z,1.92
2023-05-10T18:11:38.290Z,2.10
2023-05-10T18:14:06.342Z,1.90
2023-05-10T18:16:34.427Z,2.00
2023-05-10T18:19:02.124Z,2.10
2023-05-10T18:21:29.918Z,2.20
2023-05-10T18:23:59.137Z,1.98
2023-05-10T18:26:26.966Z,2.20
2023-05-10T18:28:55.634Z,2.20
2023-05-10T18:31:24.024Z,2.05
2023-05-10T18:33:51.481Z,1.92
2023-05-10T18:36:19.096Z,2.20
2023-05-10T18:38:46.720Z,2.30
2023-05-10T18:41:14.867Z,2.08
2023-05-10T18:43:44.751Z,2.13
2023-05-10T18:46:12.742Z,1.83
2023-05-10T18:48:40.825Z,2.20
2023-05-10T18:51:08.458Z,1.90
2023-05-10T18:53:35.961Z,1.90
2023-05-10T18:56:03.608Z,1.93
2023-05-10T18:58:31.432Z,2.13
2023-05-10T19:00:58.989Z,2.20
2023-05-10T19:03:29.550Z,1.83
2023-05-10T19:05:59.410Z,2.00
2023-05-10T19:08:26.802Z,1.83
2023-05-10T19:10:54.311Z,1.90
2023-05-10T19:13:21.908Z,2.10
2023-05-10T19:16:11.240Z,2.30
2023-05-10T19:18:40.133Z,2.23
2023-05-10T19:21:10.603Z,2.10
2023-05-10T19:23:45.927Z,2.17
2023-05-10T19:26:13.889Z,1.90
2023-05-10T19:28:44.360Z,2.10
2023-05-10T19:31:15.106Z,2.23
2023-05-10T19:33:42.576Z,2.37
2023-05-10T19:36:10.113Z,1.97
2023-05-10T19:38:37.715Z,2.40
2023-05-10T19:41:05.367Z,2.20
2023-05-10T19:43:39.919Z,2.03
2023-05-10T19:46:09.902Z,2.73
2023-05-10T19:48:38.014Z,2.50
2023-05-10T19:51:16.074Z,2.50
2023-05-10T19:53:45.110Z,2.23
2023-05-10T19:56:13.219Z,2.00
2023-05-10T19:58:41.089Z,2.63
2023-05-10T20:01:08.711Z,2.20
2023-05-10T20:03:36.560Z,1.87
2023-05-10T20:06:17.276Z,2.10
2023-05-10T20:08:44.934Z,2.07
2023-05-10T20:11:12.498Z,1.90
2023-05-10T20:13:40.186Z,2.10
2023-05-10T20:16:09.798Z,2.23
2023-05-10T20:18:39.407Z,2.00
2023-05-10T20:21:07.281Z,2.00
2023-05-10T20:23:35.104Z,2.10
2023-05-10T20:26:03.320Z,2.30
2023-05-10T20:28:31.802Z,2.10
2023-05-10T20:31:06.664Z,2.20
2023-05-10T20:33:34.349Z,1.90
2023-05-10T20:36:01.980Z,2.17
2023-05-10T20:38:29.653Z,2.27
2023-05-10T20:40:57.670Z,2.00
2023-05-10T20:43:25.293Z,2.37
2023-05-10T20:45:54.264Z,2.10
2023-05-10T20:48:22.034Z,2.10
2023-05-10T20:50:49.682Z,2.00
2023-05-10T20:53:18.962Z,2.10
2023-05-10T20:55:51.766Z,2.27
2023-05-10T20:58:19.342Z,2.30
2023-05-10T21:00:46.831Z,2.30
2023-05-10T21:03:15.849Z,2.20
2023-05-10T21:05:43.555Z,2.10
2023-05-10T21:08:11.342Z,2.03
2023-05-10T21:10:43.162Z,2.00
2023-05-10T21:13:10.868Z,2.43
2023-05-10T21:15:38.320Z,2.40
2023-05-10T21:18:08.947Z,2.40
2023-05-10T21:20:36.459Z,2.20
2023-05-10T21:23:03.954Z,2.53
2023-05-10T21:25:31.540Z,2.27
2023-05-10T21:28:00.194Z,2.53
2023-05-10T21:30:30.693Z,2.30
2023-05-10T21:33:00.137Z,2.70
2023-05-10T21:35:27.767Z,2.50
2023-05-10T21:37:55.261Z,2.67
2023-05-10T21:40:23.329Z,2.57
2023-05-10T21:42:53.654Z,2.53
2023-05-10T21:45:21.147Z,2.60
2023-05-10T21:48:08.464Z,2.57
2023-05-10T21:50:35.925Z,2.70
2023-05-10T21:53:03.861Z,2.40
2023-05-10T21:55:31.543Z,2.80
2023-05-10T21:57:59.124Z,2.30
2023-05-10T22:00:26.854Z,2.80
2023-05-10T22:02:54.414Z,2.73
2023-05-10T22:05:22.467Z,2.77
2023-05-10T22:07:49.903Z,2.60
2023-05-10T22:10:17.604Z,2.57
2023-05-10T22:12:45.232Z,2.80
2023-05-10T22:15:12.771Z,2.50
2023-05-10T22:17:41.507Z,2.67
2023-05-10T22:20:13.353Z,3.20
2023-05-10T22:22:41.020Z,2.77
2023-05-10T22:25:14.061Z,2.80
2023-05-10T22:27:45.764Z,2.83
2023-05-10T22:30:13.404Z,2.90
2023-05-10T22:32:40.968Z,2.53
2023-05-10T22:35:09.771Z,3.10
2023-05-10T22:37:38.081Z,3.07
2023-05-10T22:40:06.255Z,2.97
2023-05-10T22:42:34.469Z,3.10
2023-05-10T22:45:02.000Z,3.07
2023-05-10T22:47:29.550Z,2.93
2023-05-10T22:49:58.515Z,2.87
2023-05-10T22:52:26.627Z,3.20
2023-05-10T22:54:54.718Z,3.07
2023-05-10T22:57:22.292Z,2.97
2023-05-10T22:59:49.768Z,2.93
2023-05-10T23:02:17.490Z,2.90
2023-05-10T23:04:45.244Z,2.90
2023-05-10T23:07:13.055Z,2.90
2023-05-10T23:09:40.621Z,3.17
2023-05-10T23:12:08.504Z,3.30
2023-05-10T23:14:36.361Z,3.63
2023-05-10T23:17:11.607Z,3.30
2023-05-10T23:19:39.119Z,3.07
2023-05-10T23:22:06.637Z,3.53
2023-05-10T23:24:36.326Z,3.17
2023-05-10T23:27:19.516Z,2.83
2023-05-10T23:29:47.459Z,3.00
2023-05-10T23:32:15.125Z,2.97
2023-05-10T23:34:43.301Z,3.17
2023-05-10T23:37:11.040Z,3.00
2023-05-10T23:39:38.442Z,3.30
2023-05-10T23:42:06.247Z,2.67
2023-05-10T23:44:33.787Z,2.70
2023-05-10T23:47:01.279Z,3.30
2023-05-10T23:49:31.527Z,3.63
2023-05-10T23:51:59.138Z,3.20
2023-05-10T23:54:26.845Z,3.30
2023-05-10T23:56:54.333Z,3.50
2023-05-10T23:59:21.878Z,3.40
